createdAt,value
2023-03-29T00:00:52.585Z,87.23
2023-03-29T00:03:19.360Z,86.84
2023-03-29T00:05:46.366Z,87.25
2023-03-29T00:08:14.852Z,86.76
2023-03-29T00:10:42.374Z,86.78
2023-03-29T00:13:09.042Z,86.53
2023-03-29T00:15:35.688Z,87.06
2023-03-29T00:18:02.342Z,87.30
2023-03-29T00:20:29.056Z,86.95
2023-03-29T00:22:55.710Z,87.00
2023-03-29T00:25:22.342Z,87.50
2023-03-29T00:27:49.170Z,87.33
2023-03-29T00:30:16.284Z,87.08
2023-03-29T00:32:43.262Z,86.86
2023-03-29T00:35:10.912Z,86.79
2023-03-29T00:37:38.019Z,86.73
2023-03-29T00:40:09.567Z,86.59
2023-03-29T00:42:36.637Z,86.56
2023-03-29T00:45:12.103Z,87.07
2023-03-29T00:47:48.664Z,87.06
2023-03-29T00:50:45.422Z,87.31
2023-03-29T00:53:26.262Z,87.29
2023-03-29T00:56:26.246Z,87.44
2023-03-29T00:59:19.084Z,87.27
2023-03-29T01:01:56.896Z,86.92
2023-03-29T01:04:36.183Z,87.15
2023-03-29T01:07:05.483Z,86.67
2023-03-29T01:09:35.426Z,87.15
2023-03-29T01:12:08.597Z,87.39
2023-03-29T01:14:41.767Z,87.42
2023-03-29T01:17:08.826Z,86.73
2023-03-29T01:19:42.177Z,86.33
2023-03-29T01:22:28.318Z,86.86
2023-03-29T01:25:03.483Z,86.74
2023-03-29T01:27:53.868Z,87.08
2023-03-29T01:30:33.523Z,87.27
2023-03-29T01:33:09.919Z,87.45
2023-03-29T01:35:48.353Z,87.47
2023-03-29T01:38:24.403Z,87.65
2023-03-29T01:40:51.548Z,87.67
2023-03-29T01:43:44.704Z,87.54
2023-03-29T01:46:21.405Z,87.74
2023-03-29T01:49:01.576Z,87.62
2023-03-29T01:51:38.461Z,87.73
2023-03-29T01:54:11.917Z,87.67
2023-03-29T01:56:43.347Z,87.68
2023-03-29T01:59:14.624Z,87.58
2023-03-29T02:01:49.284Z,87.97
2023-03-29T02:04:22.690Z,87.88
2023-03-29T02:06:54.070Z,87.81
2023-03-29T02:09:21.221Z,87.67
2023-03-29T02:11:49.488Z,87.41
2023-03-29T02:14:16.902Z,87.82
2023-03-29T02:16:46.332Z,88.26
2023-03-29T02:19:13.523Z,88.02
2023-03-29T02:22:03.451Z,88.04
2023-03-29T02:24:33.577Z,87.97
2023-03-29T02:27:01.161Z,87.96
2023-03-29T02:29:27.796Z,87.83
2023-03-29T02:32:10.169Z,87.41
2023-03-29T02:34:51.982Z,87.38
2023-03-29T02:37:20.464Z,87.49
2023-03-29T02:39:49.674Z,87.24
2023-03-29T02:42:20.193Z,86.97
2023-03-29T02:44:49.482Z,86.57
2023-03-29T02:47:21.272Z,86.46
2023-03-29T02:49:47.897Z,86.57
2023-03-29T02:52:19.817Z,86.92
2023-03-29T02:54:50.277Z,87.03
2023-03-29T02:57:17.447Z,87.36
2023-03-29T02:59:44.934Z,87.40
2023-03-29T03:02:11.838Z,87.40
2023-03-29T03:04:38.457Z,87.50
2023-03-29T03:07:05.300Z,87.60
2023-03-29T03:09:31.865Z,87.59
2023-03-29T03:11:58.457Z,87.40
2023-03-29T03:14:25.008Z,87.91
2023-03-29T03:16:52.787Z,88.02
2023-03-29T03:19:19.823Z,87.79
2023-03-29T03:21:47.042Z,87.37
2023-03-29T03:24:13.619Z,87.30
2023-03-29T03:26:40.300Z,87.28
2023-03-29T03:29:06.924Z,87.20
2023-03-29T03:31:33.602Z,87.11
2023-03-29T03:34:00.837Z,87.46
2023-03-29T03:36:29.116Z,87.37
2023-03-29T03:38:55.709Z,87.00
2023-03-29T03:41:22.777Z,87.12
2023-03-29T03:43:49.586Z,86.84
2023-03-29T03:46:17.142Z,86.81
2023-03-29T03:48:45.115Z,86.89
2023-03-29T03:51:11.789Z,87.07
2023-03-29T03:53:38.462Z,86.86
2023-03-29T03:56:08.886Z,86.80
2023-03-29T03:58:36.581Z,86.79
2023-03-29T04:01:04.135Z,86.61
2023-03-29T04:03:31.660Z,87.11
2023-03-29T04:06:02.374Z,87.05
2023-03-29T04:08:29.090Z,87.34
2023-03-29T04:10:57.488Z,87.76
2023-03-29T04:13:25.712Z,87.69
2023-03-29T04:15:55.672Z,87.94
2023-03-29T04:18:24.049Z,87.29
2023-03-29T04:20:50.943Z,87.03
2023-03-29T04:23:17.831Z,87.09
2023-03-29T04:25:44.862Z,87.02
2023-03-29T04:28:12.689Z,86.96
2023-03-29T04:30:39.428Z,87.13
2023-03-29T04:33:06.373Z,86.59
2023-03-29T04:35:33.292Z,86.47
2023-03-29T04:38:00.237Z,86.14
2023-03-29T04:40:26.746Z,86.77
2023-03-29T04:42:54.319Z,86.87
2023-03-29T04:45:21.138Z,87.04
2023-03-29T04:47:47.842Z,86.86
2023-03-29T04:50:14.510Z,86.11
2023-03-29T04:52:41.332Z,85.61
2023-03-29T04:55:08.385Z,85.57
2023-03-29T04:57:34.950Z,85.61
2023-03-29T05:00:01.803Z,85.60
2023-03-29T05:02:32.151Z,86.01
2023-03-29T05:04:58.774Z,85.96
2023-03-29T05:07:25.337Z,85.98
2023-03-29T05:09:51.975Z,85.50
2023-03-29T05:12:18.622Z,85.15
2023-03-29T05:14:45.619Z,85.24
2023-03-29T05:17:12.179Z,85.45
2023-03-29T05:19:38.670Z,85.11
2023-03-29T05:22:05.299Z,84.40
2023-03-29T05:24:31.976Z,84.31
2023-03-29T05:26:58.484Z,84.12
2023-03-29T05:29:25.221Z,83.95
2023-03-29T05:34:18.894Z,83.56
2023-03-29T05:36:45.718Z,83.24
2023-03-29T05:39:12.322Z,82.91
2023-03-29T05:41:38.960Z,82.83
2023-03-29T05:44:06.483Z,82.57
2023-03-29T05:46:33.062Z,82.46
2023-03-29T05:48:59.729Z,82.51
2023-03-29T05:51:26.500Z,81.77
2023-03-29T05:53:54.044Z,81.52
2023-03-29T05:56:22.382Z,81.35
2023-03-29T05:58:50.984Z,80.82
2023-03-29T06:01:18.884Z,79.51
2023-03-29T06:03:48.160Z,79.30
2023-03-29T06:06:16.370Z,79.38
2023-03-29T06:08:44.072Z,79.06
2023-03-29T06:11:13.226Z,79.19
2023-03-29T06:13:41.388Z,78.75
2023-03-29T06:16:09.908Z,78.31
2023-03-29T06:18:41.081Z,77.32
2023-03-29T06:21:09.086Z,77.17
2023-03-29T06:23:36.377Z,76.51
2023-03-29T06:26:03.271Z,75.45
2023-03-29T06:28:29.860Z,74.55
2023-03-29T06:30:56.854Z,73.68
2023-03-29T06:33:25.144Z,72.95
2023-03-29T06:35:51.814Z,72.90
2023-03-29T06:38:19.445Z,73.00
2023-03-29T06:40:47.232Z,72.76
2023-03-29T06:43:14.166Z,72.47
2023-03-29T06:45:40.835Z,72.08
2023-03-29T06:48:08.155Z,72.19
2023-03-29T06:50:35.573Z,72.03
2023-03-29T06:53:02.583Z,71.88
2023-03-29T06:55:29.256Z,71.08
2023-03-29T06:57:55.785Z,70.96
2023-03-29T07:00:29.721Z,70.19
2023-03-29T07:02:58.900Z,69.60
2023-03-29T07:05:29.202Z,68.70
2023-03-29T07:08:13.700Z,69.12
2023-03-29T07:10:43.341Z,65.95
2023-03-29T07:13:15.507Z,65.93
2023-03-29T07:15:43.694Z,66.09
2023-03-29T07:18:12.387Z,66.49
2023-03-29T07:20:39.043Z,65.48
2023-03-29T07:23:06.874Z,65.52
2023-03-29T07:25:33.929Z,64.55
2023-03-29T07:28:00.471Z,65.61
2023-03-29T07:30:31.655Z,65.38
2023-03-29T07:32:59.458Z,63.79
2023-03-29T07:35:26.701Z,62.88
2023-03-29T07:37:55.433Z,61.12
2023-03-29T07:40:26.138Z,59.40
2023-03-29T07:42:55.130Z,58.11
2023-03-29T07:45:26.840Z,60.24
2023-03-29T07:47:59.495Z,57.78
2023-03-29T07:50:27.696Z,57.60
2023-03-29T07:52:54.662Z,56.39
2023-03-29T07:55:22.028Z,55.81
2023-03-29T07:57:49.385Z,52.81
2023-03-29T08:00:17.216Z,49.39
2023-03-29T08:02:49.682Z,49.64
2023-03-29T08:05:26.067Z,46.07
2023-03-29T08:08:00.846Z,42.46
2023-03-29T08:10:28.410Z,43.82
2023-03-29T08:12:55.209Z,44.10
2023-03-29T08:15:21.814Z,43.95
2023-03-29T08:17:48.544Z,43.62
2023-03-29T08:20:19.219Z,41.87
2023-03-29T08:22:45.869Z,40.84
2023-03-29T08:25:12.846Z,39.87
2023-03-29T08:27:39.590Z,39.25
2023-03-29T08:30:09.345Z,37.96
2023-03-29T08:32:36.936Z,36.64
2023-03-29T08:35:04.872Z,36.10
2023-03-29T08:37:32.545Z,33.96
2023-03-29T08:40:00.836Z,33.49
2023-03-29T08:42:33.113Z,35.96
2023-03-29T08:45:21.846Z,38.02
2023-03-29T08:48:08.728Z,37.84
2023-03-29T08:50:38.357Z,34.13
2023-03-29T08:53:12.441Z,37.12
2023-03-29T08:55:42.846Z,32.91
2023-03-29T08:58:20.139Z,32.40
2023-03-29T09:00:59.101Z,39.19
2023-03-29T09:03:31.417Z,39.26
2023-03-29T09:06:03.710Z,35.44
2023-03-29T09:08:30.969Z,37.57
2023-03-29T09:11:18.985Z,41.29
2023-03-29T09:14:09.960Z,47.25
2023-03-29T09:16:54.858Z,51.15
2023-03-29T09:19:43.421Z,49.20
2023-03-29T09:22:30.218Z,48.04
2023-03-29T09:25:13.949Z,43.60
2023-03-29T09:27:46.715Z,43.88
2023-03-29T09:30:30.671Z,41.80
2023-03-29T09:33:03.354Z,39.18
2023-03-29T09:35:37.376Z,38.32
2023-03-29T09:38:09.440Z,39.66
2023-03-29T09:40:47.902Z,39.60
2023-03-29T09:43:18.480Z,46.64
2023-03-29T09:45:51.093Z,45.68
2023-03-29T09:48:19.658Z,40.31
2023-03-29T09:50:48.231Z,38.55
2023-03-29T09:53:16.123Z,38.98
2023-03-29T09:55:44.578Z,38.86
2023-03-29T09:58:22.686Z,35.89
2023-03-29T10:00:49.951Z,34.90
2023-03-29T10:03:21.096Z,32.67
2023-03-29T10:05:49.944Z,31.83
2023-03-29T10:08:22.299Z,34.82
2023-03-29T10:10:49.174Z,37.08
2023-03-29T10:13:22.957Z,39.14
2023-03-29T10:16:07.850Z,39.23
2023-03-29T10:18:40.695Z,37.95
2023-03-29T10:21:10.319Z,40.88
2023-03-29T10:23:38.021Z,37.90
2023-03-29T10:26:11.568Z,40.05
2023-03-29T10:28:38.540Z,40.36
2023-03-29T10:31:07.984Z,39.42
2023-03-29T10:33:36.113Z,42.63
2023-03-29T10:36:07.534Z,40.63
2023-03-29T10:38:36.300Z,40.72
2023-03-29T10:41:06.717Z,37.62
2023-03-29T10:43:44.496Z,34.53
2023-03-29T10:46:19.476Z,39.94
2023-03-29T10:48:49.640Z,40.94
2023-03-29T10:51:18.192Z,39.81
2023-03-29T10:53:44.906Z,39.22
2023-03-29T10:56:29.460Z,42.86
2023-03-29T10:59:21.540Z,46.10
2023-03-29T11:02:16.965Z,46.25
2023-03-29T11:05:05.839Z,48.28
2023-03-29T11:07:36.491Z,50.49
2023-03-29T11:10:21.667Z,51.35
2023-03-29T11:13:12.650Z,50.86
2023-03-29T11:15:52.502Z,52.17
2023-03-29T11:18:22.265Z,51.87
2023-03-29T11:20:52.829Z,49.48
2023-03-29T11:23:22.346Z,45.42
2023-03-29T11:26:20.475Z,44.17
2023-03-29T11:28:57.645Z,44.80
2023-03-29T11:31:53.650Z,48.21
2023-03-29T11:34:35.412Z,48.89
2023-03-29T11:37:19.322Z,47.20
2023-03-29T11:40:26.728Z,48.73
2023-03-29T11:42:56.803Z,48.72
2023-03-29T11:45:52.614Z,51.29
2023-03-29T11:48:28.939Z,51.57
2023-03-29T11:51:07.735Z,50.35
2023-03-29T11:53:51.187Z,50.24
2023-03-29T11:56:29.126Z,49.08
2023-03-29T11:59:02.456Z,50.14
2023-03-29T12:01:37.526Z,50.41
2023-03-29T12:04:10.911Z,51.05
2023-03-29T12:07:11.181Z,50.70
2023-03-29T12:09:49.961Z,50.65
2023-03-29T12:12:38.194Z,52.12
2023-03-29T12:15:15.403Z,51.25
2023-03-29T12:17:47.116Z,51.32
2023-03-29T12:20:26.692Z,50.50
2023-03-29T12:22:54.215Z,50.95
2023-03-29T12:25:26.757Z,52.25
2023-03-29T12:28:25.492Z,52.79
2023-03-29T12:31:07.158Z,53.04
2023-03-29T12:34:07.594Z,53.28
2023-03-29T12:36:46.290Z,53.04
2023-03-29T12:39:18.729Z,54.25
2023-03-29T12:41:49.177Z,54.22
2023-03-29T12:44:20.409Z,55.08
2023-03-29T12:46:50.994Z,55.03
2023-03-29T12:49:38.865Z,54.10
2023-03-29T12:52:23.245Z,53.94
2023-03-29T12:54:55.376Z,54.12
2023-03-29T12:57:29.078Z,54.66
2023-03-29T12:59:56.340Z,53.63
2023-03-29T13:02:22.894Z,52.86
2023-03-29T13:04:57.918Z,53.24
2023-03-29T13:07:26.362Z,54.22
2023-03-29T13:10:20.718Z,54.47
2023-03-29T13:12:50.211Z,52.35
2023-03-29T13:15:16.845Z,53.01
2023-03-29T13:18:06.123Z,52.87
2023-03-29T13:20:37.245Z,53.61
2023-03-29T13:23:18.958Z,54.29
2023-03-29T13:26:19.632Z,55.29
2023-03-29T13:29:25.300Z,55.78
2023-03-29T13:32:14.625Z,55.22
2023-03-29T13:34:53.801Z,55.69
2023-03-29T13:37:34.577Z,55.91
2023-03-29T13:40:01.709Z,55.32
2023-03-29T13:42:37.017Z,55.55
2023-03-29T13:45:16.702Z,55.35
2023-03-29T13:47:54.920Z,54.23
2023-03-29T13:50:40.654Z,56.14
2023-03-29T13:53:24.856Z,55.45
2023-03-29T13:55:54.024Z,56.15
2023-03-29T13:58:27.641Z,56.09
2023-03-29T14:01:38.097Z,56.01
2023-03-29T14:04:08.248Z,55.66
2023-03-29T14:06:37.131Z,55.56
2023-03-29T14:09:07.194Z,55.76
2023-03-29T14:11:34.061Z,55.42
2023-03-29T14:14:04.993Z,55.71
2023-03-29T14:16:35.218Z,55.70
2023-03-29T14:19:13.353Z,55.87
2023-03-29T14:21:41.454Z,56.49
2023-03-29T14:24:15.022Z,57.23
2023-03-29T14:26:46.709Z,57.62
2023-03-29T14:29:13.983Z,57.00
2023-03-29T14:31:42.055Z,57.09
2023-03-29T14:34:18.543Z,57.43
2023-03-29T14:36:48.622Z,57.79
2023-03-29T14:39:18.305Z,57.46
2023-03-29T14:41:56.824Z,57.66
2023-03-29T14:44:34.680Z,57.68
2023-03-29T14:47:02.873Z,56.85
2023-03-29T14:49:29.976Z,57.09
2023-03-29T14:51:57.152Z,57.24
2023-03-29T14:54:29.654Z,57.26
2023-03-29T14:56:56.346Z,57.64
2023-03-29T14:59:40.840Z,57.85
2023-03-29T15:02:26.139Z,58.94
2023-03-29T15:04:58.872Z,58.66
2023-03-29T15:07:28.095Z,57.51
2023-03-29T15:09:56.262Z,58.75
2023-03-29T15:12:23.439Z,59.09
2023-03-29T15:14:53.284Z,58.99
2023-03-29T15:17:47.736Z,59.97
2023-03-29T15:20:25.729Z,60.33
2023-03-29T15:23:20.593Z,61.18
2023-03-29T15:25:52.276Z,61.73
2023-03-29T15:28:26.389Z,61.69
2023-03-29T15:31:07.209Z,62.13
2023-03-29T15:33:36.009Z,61.88
2023-03-29T15:36:04.939Z,61.64
2023-03-29T15:38:42.545Z,62.25
2023-03-29T15:41:11.512Z,62.46
2023-03-29T15:43:38.023Z,63.04
2023-03-29T15:46:05.181Z,62.78
2023-03-29T15:48:33.552Z,62.77
2023-03-29T15:51:03.741Z,63.22
2023-03-29T15:53:32.226Z,63.39
2023-03-29T15:56:03.935Z,63.58
2023-03-29T15:58:32.639Z,63.20
2023-03-29T16:01:35.475Z,63.41
2023-03-29T16:04:04.170Z,63.56
2023-03-29T16:06:31.892Z,63.80
2023-03-29T16:08:58.357Z,63.20
2023-03-29T16:11:24.979Z,63.79
2023-03-29T16:13:51.589Z,64.12
2023-03-29T16:16:18.241Z,64.13
2023-03-29T16:18:44.845Z,64.59
2023-03-29T16:21:14.346Z,64.93
2023-03-29T16:23:42.905Z,64.51
2023-03-29T16:26:12.787Z,64.17
2023-03-29T16:28:39.944Z,64.39
2023-03-29T16:31:06.929Z,64.52
2023-03-29T16:33:33.616Z,65.66
2023-03-29T16:36:00.577Z,65.14
2023-03-29T16:38:29.189Z,65.44
2023-03-29T16:40:55.967Z,65.64
2023-03-29T16:43:22.556Z,66.17
2023-03-29T16:45:49.218Z,67.39
2023-03-29T16:48:17.508Z,66.55
2023-03-29T16:50:48.598Z,66.72
2023-03-29T16:53:19.877Z,66.93
2023-03-29T16:55:47.451Z,66.90
2023-03-29T16:58:15.205Z,68.58
2023-03-29T17:00:41.945Z,67.40
2023-03-29T17:03:08.894Z,67.50
2023-03-29T17:05:41.135Z,68.37
2023-03-29T17:08:10.012Z,68.26
2023-03-29T17:10:40.698Z,68.62
2023-03-29T17:13:08.083Z,68.44
2023-03-29T17:15:37.361Z,69.13
2023-03-29T17:18:05.887Z,68.69
2023-03-29T17:20:32.454Z,68.79
2023-03-29T17:23:08.755Z,69.88
2023-03-29T17:25:35.706Z,70.13
2023-03-29T17:28:02.855Z,70.11
2023-03-29T17:30:29.484Z,69.38
2023-03-29T17:32:56.102Z,71.35
2023-03-29T17:35:22.701Z,70.81
2023-03-29T17:37:49.483Z,72.12
2023-03-29T17:40:17.153Z,72.61
2023-03-29T17:42:48.677Z,71.71
2023-03-29T17:45:15.812Z,71.06
2023-03-29T17:47:42.420Z,72.21
2023-03-29T17:50:11.395Z,72.20
2023-03-29T17:52:39.577Z,72.11
2023-03-29T17:55:16.293Z,73.05
2023-03-29T17:57:43.736Z,73.33
2023-03-29T18:00:13.439Z,73.49
2023-03-29T18:02:41.936Z,74.27
2023-03-29T18:05:10.080Z,73.59
2023-03-29T18:07:37.343Z,73.90
2023-03-29T18:10:04.548Z,74.49
2023-03-29T18:12:31.475Z,73.82
2023-03-29T18:14:58.346Z,74.20
2023-03-29T18:17:27.196Z,74.07
2023-03-29T18:19:54.059Z,74.63
2023-03-29T18:22:21.605Z,74.80
2023-03-29T18:24:49.192Z,75.20
2023-03-29T18:27:15.967Z,75.55
2023-03-29T18:29:43.931Z,75.74
2023-03-29T18:32:11.067Z,75.60
2023-03-29T18:34:39.074Z,75.92
2023-03-29T18:37:06.010Z,75.76
2023-03-29T18:39:34.482Z,76.27
2023-03-29T18:42:01.604Z,76.29
2023-03-29T18:44:28.828Z,76.46
2023-03-29T18:46:56.232Z,76.49
2023-03-29T18:49:22.990Z,76.82
2023-03-29T18:51:49.920Z,77.74
2023-03-29T18:54:17.073Z,77.51
2023-03-29T18:56:43.631Z,77.99
2023-03-29T18:59:10.173Z,78.23
2023-03-29T19:01:36.764Z,77.71
2023-03-29T19:04:03.478Z,78.51
2023-03-29T19:06:30.424Z,77.93
2023-03-29T19:08:59.472Z,78.62
2023-03-29T19:11:27.701Z,78.51
2023-03-29T19:13:55.823Z,78.46
2023-03-29T19:16:22.564Z,78.43
2023-03-29T19:18:49.357Z,78.93
2023-03-29T19:21:15.944Z,78.56
2023-03-29T19:23:42.629Z,78.93
2023-03-29T19:26:11.493Z,79.18
2023-03-29T19:28:37.991Z,79.41
2023-03-29T19:31:04.564Z,79.52
2023-03-29T19:33:31.502Z,79.71
2023-03-29T19:35:58.072Z,79.69
2023-03-29T19:38:24.800Z,79.83
2023-03-29T19:40:51.735Z,80.01
2023-03-29T19:43:18.776Z,80.42
2023-03-29T19:45:47.178Z,80.21
2023-03-29T19:48:21.921Z,80.18
2023-03-29T19:50:50.111Z,79.98
2023-03-29T19:53:16.722Z,80.20
2023-03-29T19:55:44.917Z,80.21
2023-03-29T19:58:11.946Z,80.34
2023-03-29T20:00:38.899Z,80.67
2023-03-29T20:03:09.521Z,80.53
2023-03-29T20:05:38.316Z,80.75
2023-03-29T20:08:05.084Z,80.64
2023-03-29T20:10:32.193Z,80.50
2023-03-29T20:12:58.939Z,80.75
2023-03-29T20:15:25.932Z,80.91
2023-03-29T20:17:54.165Z,81.48
2023-03-29T20:20:23.956Z,81.32
2023-03-29T20:23:04.406Z,81.43
2023-03-29T20:25:32.538Z,81.27
2023-03-29T20:27:59.616Z,81.28
2023-03-29T20:30:26.309Z,80.83
2023-03-29T20:32:53.004Z,81.08
2023-03-29T20:35:19.767Z,81.30
2023-03-29T20:37:46.256Z,81.34
2023-03-29T20:40:13.761Z,81.54
2023-03-29T20:42:41.099Z,81.70
2023-03-29T20:45:08.782Z,81.27
2023-03-29T20:47:42.217Z,81.73
2023-03-29T20:50:10.413Z,81.78
2023-03-29T20:52:36.937Z,81.71
2023-03-29T20:55:04.145Z,82.50
2023-03-29T20:57:30.688Z,82.68
2023-03-29T20:59:57.722Z,83.12
2023-03-29T21:02:24.312Z,82.15
2023-03-29T21:04:52.453Z,82.12
2023-03-29T21:07:20.300Z,81.82
2023-03-29T21:09:49.672Z,82.31
2023-03-29T21:12:16.718Z,82.28
2023-03-29T21:14:43.529Z,82.55
2023-03-29T21:17:10.291Z,82.31
2023-03-29T21:19:38.212Z,82.31
2023-03-29T21:22:05.025Z,82.24
2023-03-29T21:24:32.995Z,82.36
2023-03-29T21:26:59.915Z,82.24
2023-03-29T21:29:26.542Z,83.03
2023-03-29T21:31:53.191Z,82.98
2023-03-29T21:34:19.837Z,82.98
2023-03-29T21:36:46.530Z,83.45
2023-03-29T21:39:13.122Z,83.23
2023-03-29T21:41:39.659Z,83.23
2023-03-29T21:44:06.354Z,83.43
2023-03-29T21:46:33.075Z,83.41
2023-03-29T21:48:59.629Z,83.43
2023-03-29T21:51:26.987Z,83.42
2023-03-29T21:53:53.556Z,83.52
2023-03-29T21:56:20.083Z,83.63
2023-03-29T21:58:46.602Z,83.62
2023-03-29T22:01:13.155Z,83.94
2023-03-29T22:03:39.720Z,83.93
2023-03-29T22:06:09.344Z,83.72
2023-03-29T22:08:41.404Z,84.07
2023-03-29T22:11:14.081Z,83.86
2023-03-29T22:13:41.228Z,84.31
2023-03-29T22:16:08.625Z,83.92
2023-03-29T22:18:43.229Z,84.23
2023-03-29T22:21:15.275Z,84.05
2023-03-29T22:23:43.709Z,84.60
2023-03-29T22:26:12.323Z,84.04
2023-03-29T22:28:39.608Z,83.97
2023-03-29T22:31:12.413Z,84.50
2023-03-29T22:33:39.793Z,83.90
2023-03-29T22:36:21.712Z,83.80
2023-03-29T22:38:50.490Z,83.81
2023-03-29T22:41:18.778Z,83.59
2023-03-29T22:43:45.403Z,83.21
2023-03-29T22:46:13.537Z,82.86
2023-03-29T22:48:40.644Z,83.12
2023-03-29T22:51:07.451Z,82.86
2023-03-29T22:53:34.397Z,83.09
2023-03-29T22:56:01.309Z,83.04
2023-03-29T22:58:29.315Z,82.41
2023-03-29T23:00:57.128Z,82.01
2023-03-29T23:03:23.905Z,82.06
2023-03-29T23:05:52.287Z,82.38
2023-03-29T23:08:18.844Z,83.12
2023-03-29T23:10:46.977Z,82.84
2023-03-29T23:13:19.839Z,82.09
2023-03-29T23:15:48.466Z,82.78
2023-03-29T23:18:18.476Z,83.07
2023-03-29T23:20:47.113Z,83.35
2023-03-29T23:23:15.323Z,84.27
2023-03-29T23:25:47.401Z,84.85
2023-03-29T23:28:16.625Z,84.11
2023-03-29T23:30:43.490Z,83.96
2023-03-29T23:33:10.434Z,84.46
2023-03-29T23:35:37.510Z,85.57
2023-03-29T23:38:05.447Z,84.19
2023-03-29T23:40:33.087Z,85.52
2023-03-29T23:42:59.743Z,84.29
2023-03-29T23:45:30.057Z,85.07
2023-03-29T23:47:57.034Z,84.94
2023-03-29T23:50:23.920Z,85.54
2023-03-29T23:52:51.452Z,85.81
2023-03-29T23:55:18.878Z,85.67
2023-03-29T23:57:45.601Z,85.93
